createdAt,value
2019-03-17T00:00:34.841Z,4.73
2019-03-17T00:03:03.535Z,4.63
2019-03-17T00:05:33.602Z,3.80
2019-03-17T00:08:02.031Z,5.00
2019-03-17T00:10:31.144Z,7.47
2019-03-17T00:12:59.580Z,4.37
2019-03-17T00:15:28.021Z,4.60
2019-03-17T00:17:56.440Z,4.60
2019-03-17T00:20:24.885Z,5.90
2019-03-17T00:22:53.303Z,5.60
2019-03-17T00:25:21.749Z,5.20
2019-03-17T00:27:50.184Z,4.57
2019-03-17T00:30:18.625Z,6.07
2019-03-17T00:32:47.053Z,5.73
2019-03-17T00:35:16.728Z,6.27
2019-03-17T00:37:45.173Z,4.40
2019-03-17T00:40:13.753Z,5.60
2019-03-17T00:42:42.291Z,5.63
2019-03-17T00:45:12.143Z,5.77
2019-03-17T00:47:42.175Z,6.47
2019-03-17T00:50:12.205Z,6.23
2019-03-17T00:52:40.672Z,5.97
2019-03-17T00:55:09.322Z,6.10
2019-03-17T00:57:37.835Z,6.20
2019-03-17T01:00:14.658Z,5.97
2019-03-17T01:02:43.187Z,4.57
2019-03-17T01:05:12.068Z,6.17
2019-03-17T01:07:40.509Z,5.37
2019-03-17T01:10:09.969Z,3.83
2019-03-17T01:12:40.569Z,5.13
2019-03-17T01:15:09.575Z,5.80
2019-03-17T01:17:38.025Z,6.37
2019-03-17T01:20:09.302Z,6.53
2019-03-17T01:22:37.741Z,4.40
2019-03-17T01:25:08.265Z,6.40
2019-03-17T01:27:36.763Z,5.83
2019-03-17T01:30:08.389Z,5.30
2019-03-17T01:32:36.853Z,6.27
2019-03-17T01:35:09.448Z,6.40
2019-03-17T01:37:37.771Z,6.80
2019-03-17T01:40:08.637Z,5.83
2019-03-17T01:42:37.081Z,4.43
2019-03-17T01:45:07.344Z,6.57
2019-03-17T01:47:35.803Z,6.80
2019-03-17T01:50:05.577Z,4.77
2019-03-17T01:52:36.209Z,5.37
2019-03-17T01:55:06.320Z,7.13
2019-03-17T01:57:34.768Z,3.87
2019-03-17T02:00:03.363Z,5.47
2019-03-17T02:02:31.826Z,6.60
2019-03-17T02:05:00.388Z,5.90
2019-03-17T02:07:29.059Z,6.63
2019-03-17T02:09:57.493Z,6.90
2019-03-17T02:12:25.926Z,7.40
2019-03-17T02:14:54.368Z,5.30
2019-03-17T02:17:22.924Z,6.10
2019-03-17T02:19:51.364Z,6.10
2019-03-17T02:22:22.175Z,6.70
2019-03-17T02:24:49.948Z,6.20
2019-03-17T02:27:21.208Z,5.40
2019-03-17T02:29:49.646Z,6.17
2019-03-17T02:32:19.351Z,6.53
2019-03-17T02:34:47.799Z,5.90
2019-03-17T02:37:16.221Z,6.80
2019-03-17T02:39:44.670Z,7.13
2019-03-17T02:42:13.084Z,4.27
2019-03-17T02:44:41.536Z,7.10
2019-03-17T02:47:09.973Z,6.20
2019-03-17T02:49:38.426Z,7.03
2019-03-17T02:52:06.998Z,6.53
2019-03-17T02:54:35.489Z,6.80
2019-03-17T02:57:03.914Z,6.17
2019-03-17T02:59:32.524Z,6.63
2019-03-17T03:02:01.134Z,6.27
2019-03-17T03:04:29.709Z,6.10
2019-03-17T03:06:58.151Z,5.53
2019-03-17T03:09:26.592Z,6.33
2019-03-17T03:11:56.567Z,5.63
2019-03-17T03:14:25.005Z,6.33
2019-03-17T03:16:53.457Z,6.10
2019-03-17T03:19:22.132Z,7.07
2019-03-17T03:21:50.577Z,6.70
2019-03-17T03:24:19.025Z,6.43
2019-03-17T03:26:47.456Z,5.70
2019-03-17T03:29:15.884Z,5.10
2019-03-17T03:31:44.451Z,5.97
2019-03-17T03:34:13.112Z,7.37
2019-03-17T03:36:41.619Z,6.87
2019-03-17T03:39:10.120Z,6.33
2019-03-17T03:41:38.585Z,6.83
2019-03-17T03:44:07.007Z,5.80
2019-03-17T03:46:35.450Z,7.23
2019-03-17T03:49:03.996Z,6.10
2019-03-17T03:51:32.527Z,7.47
2019-03-17T03:54:01.037Z,6.73
2019-03-17T03:56:29.476Z,6.37
2019-03-17T03:58:57.903Z,5.70
2019-03-17T04:01:26.366Z,6.27
2019-03-17T04:03:55.162Z,4.83
2019-03-17T04:06:26.910Z,6.23
2019-03-17T04:08:53.755Z,7.07
2019-03-17T04:11:22.193Z,7.57
2019-03-17T04:13:50.630Z,6.93
2019-03-17T04:16:19.069Z,7.60
2019-03-17T04:18:47.504Z,7.43
2019-03-17T04:21:15.980Z,6.90
2019-03-17T04:23:44.463Z,6.77
2019-03-17T04:26:12.905Z,6.30
2019-03-17T04:28:41.332Z,7.63
2019-03-17T04:31:09.773Z,6.27
2019-03-17T04:33:38.197Z,5.80
2019-03-17T04:36:06.639Z,4.70
2019-03-17T04:38:35.060Z,5.77
2019-03-17T04:41:03.503Z,4.87
2019-03-17T04:43:32.021Z,4.27
2019-03-17T04:46:02.673Z,4.97
2019-03-17T04:48:31.177Z,3.47
2019-03-17T04:50:59.733Z,5.67
2019-03-17T04:53:28.363Z,5.47
2019-03-17T04:55:56.805Z,4.60
2019-03-17T04:58:25.264Z,5.63
2019-03-17T05:00:53.877Z,4.70
2019-03-17T05:03:22.396Z,4.60
2019-03-17T05:05:50.823Z,4.57
2019-03-17T05:08:19.256Z,4.80
2019-03-17T05:10:48.136Z,3.83
2019-03-17T05:13:17.147Z,3.03
2019-03-17T05:15:45.620Z,3.83
2019-03-17T05:18:14.091Z,3.50
2019-03-17T05:20:42.520Z,4.00
2019-03-17T05:23:11.524Z,4.50
2019-03-17T05:25:39.994Z,4.50
2019-03-17T05:28:08.498Z,3.40
2019-03-17T05:30:36.925Z,3.30
2019-03-17T05:33:08.088Z,3.83
2019-03-17T05:35:39.085Z,4.30
2019-03-17T05:38:07.529Z,4.37
2019-03-17T05:40:35.961Z,3.50
2019-03-17T05:43:04.401Z,4.37
2019-03-17T05:45:32.959Z,4.33
2019-03-17T05:48:01.381Z,4.10
2019-03-17T05:50:29.819Z,3.97
2019-03-17T05:52:58.241Z,4.30
2019-03-17T05:55:26.690Z,4.80
2019-03-17T05:57:55.111Z,4.43
2019-03-17T06:00:23.582Z,4.30
2019-03-17T06:02:52.001Z,4.40
2019-03-17T06:05:20.438Z,4.00
2019-03-17T06:07:48.870Z,4.57
2019-03-17T06:10:17.306Z,4.10
2019-03-17T06:12:45.729Z,4.40
2019-03-17T06:15:14.179Z,3.77
2019-03-17T06:17:42.742Z,4.27
2019-03-17T06:20:12.206Z,4.00
2019-03-17T06:22:40.631Z,3.30
2019-03-17T06:25:10.212Z,3.77
2019-03-17T06:27:38.762Z,4.53
2019-03-17T06:30:12.231Z,4.30
2019-03-17T06:32:42.225Z,3.93
2019-03-17T06:35:10.666Z,4.50
2019-03-17T06:37:39.097Z,4.27
2019-03-17T06:40:10.641Z,4.70
2019-03-17T06:42:39.078Z,4.50
2019-03-17T06:45:09.570Z,3.07
2019-03-17T06:47:37.993Z,4.77
2019-03-17T06:50:12.562Z,3.07
2019-03-17T06:52:42.566Z,4.13
2019-03-17T06:55:16.023Z,2.00
2019-03-17T06:57:44.456Z,1.10
2019-03-17T07:00:14.305Z,1.07
2019-03-17T07:02:43.061Z,1.77
2019-03-17T07:05:11.516Z,1.20
2019-03-17T07:07:44.336Z,1.17
2019-03-17T07:10:11.036Z,1.13
2019-03-17T07:12:39.618Z,1.10
2019-03-17T07:15:10.685Z,1.33
2019-03-17T07:17:39.124Z,0.90
2019-03-17T07:20:10.658Z,1.23
2019-03-17T07:22:39.083Z,1.00
2019-03-17T07:25:09.051Z,1.47
2019-03-17T07:27:37.480Z,1.23
2019-03-17T07:30:11.777Z,1.10
2019-03-17T07:32:40.215Z,1.20
2019-03-17T07:35:08.724Z,0.90
2019-03-17T07:37:37.185Z,1.10
2019-03-17T07:40:08.691Z,0.90
2019-03-17T07:42:37.120Z,0.90
2019-03-17T07:45:10.265Z,1.40
2019-03-17T07:47:38.778Z,1.17
2019-03-17T07:50:11.909Z,1.00
2019-03-17T07:52:40.447Z,0.93
2019-03-17T07:55:09.930Z,1.47
2019-03-17T07:57:38.393Z,1.30
2019-03-17T08:00:09.394Z,1.20
2019-03-17T08:02:39.378Z,1.97
2019-03-17T08:05:09.610Z,1.50
2019-03-17T08:07:38.387Z,1.30
2019-03-17T08:10:14.027Z,1.30
2019-03-17T08:12:44.050Z,1.80
2019-03-17T08:15:13.835Z,1.53
2019-03-17T08:17:42.276Z,1.10
2019-03-17T08:20:11.892Z,1.00
2019-03-17T08:22:40.382Z,1.00
2019-03-17T08:25:10.106Z,1.00
2019-03-17T08:27:38.566Z,1.40
2019-03-17T08:30:12.794Z,1.03
2019-03-17T08:32:41.730Z,1.13
2019-03-17T08:35:11.081Z,1.30
2019-03-17T08:37:39.574Z,1.67
2019-03-17T08:40:15.521Z,1.90
2019-03-17T08:42:44.497Z,1.57
2019-03-17T08:45:14.167Z,1.90
2019-03-17T08:47:42.761Z,1.47
2019-03-17T08:50:15.218Z,2.10
2019-03-17T08:52:43.935Z,2.50
2019-03-17T08:55:12.805Z,1.30
2019-03-17T08:57:41.356Z,1.00
2019-03-17T09:00:12.455Z,1.20
2019-03-17T09:02:41.071Z,1.50
2019-03-17T09:05:10.020Z,1.33
2019-03-17T09:07:38.963Z,1.63
2019-03-17T09:10:17.607Z,1.77
2019-03-17T09:12:46.085Z,1.73
2019-03-17T09:15:14.743Z,1.97
2019-03-17T09:17:43.241Z,1.60
2019-03-17T09:20:15.442Z,1.60
2019-03-17T09:22:43.958Z,2.70
2019-03-17T09:25:12.806Z,1.63
2019-03-17T09:27:41.378Z,1.90
2019-03-17T09:30:13.368Z,1.23
2019-03-17T09:32:42.708Z,1.77
2019-03-17T09:35:11.391Z,1.80
2019-03-17T09:37:39.843Z,1.87
2019-03-17T09:40:13.510Z,1.90
2019-03-17T09:42:41.978Z,1.57
2019-03-17T09:45:15.921Z,1.63
2019-03-17T09:47:44.593Z,2.00
2019-03-17T09:50:20.850Z,1.37
2019-03-17T09:52:50.321Z,3.00
2019-03-17T09:55:19.613Z,2.07
2019-03-17T09:57:48.122Z,1.37
2019-03-17T10:00:21.300Z,1.57
2019-03-17T10:02:49.861Z,1.53
2019-03-17T10:05:18.361Z,1.47
2019-03-17T10:07:46.805Z,2.03
2019-03-17T10:10:17.591Z,1.30
2019-03-17T10:12:46.607Z,1.90
2019-03-17T10:15:19.285Z,2.20
2019-03-17T10:17:47.843Z,2.30
2019-03-17T10:20:20.554Z,1.60
2019-03-17T10:22:49.051Z,1.33
2019-03-17T10:25:25.428Z,1.73
2019-03-17T10:27:57.612Z,2.00
2019-03-17T10:30:26.110Z,2.50
2019-03-17T10:32:54.538Z,1.20
2019-03-17T10:35:22.969Z,1.50
2019-03-17T10:37:51.385Z,1.10
2019-03-17T10:40:21.463Z,1.67
2019-03-17T10:42:50.451Z,1.40
2019-03-17T10:45:18.959Z,2.23
2019-03-17T10:47:47.381Z,1.60
2019-03-17T10:50:18.014Z,1.30
2019-03-17T10:52:46.804Z,1.97
2019-03-17T10:55:15.513Z,3.60
2019-03-17T10:57:43.951Z,2.30
2019-03-17T11:00:24.466Z,2.00
2019-03-17T11:02:52.916Z,2.00
2019-03-17T11:05:21.335Z,1.67
2019-03-17T11:07:49.908Z,1.40
2019-03-17T11:10:19.679Z,1.90
2019-03-17T11:12:48.249Z,1.63
2019-03-17T11:15:20.510Z,2.27
2019-03-17T11:17:48.946Z,1.67
2019-03-17T11:20:17.388Z,1.97
2019-03-17T11:22:45.880Z,1.50
2019-03-17T11:25:15.277Z,1.40
2019-03-17T11:27:43.737Z,1.50
2019-03-17T11:30:16.334Z,2.07
2019-03-17T11:32:44.833Z,1.47
2019-03-17T11:35:13.390Z,1.70
2019-03-17T11:37:41.836Z,2.00
2019-03-17T11:40:18.185Z,1.33
2019-03-17T11:42:49.511Z,1.83
2019-03-17T11:45:17.860Z,1.50
2019-03-17T11:47:46.389Z,2.50
2019-03-17T11:50:22.126Z,1.60
2019-03-17T11:52:51.142Z,1.73
2019-03-17T11:55:19.556Z,1.10
2019-03-17T11:57:49.358Z,2.03
2019-03-17T12:00:22.664Z,1.23
2019-03-17T12:02:51.112Z,1.50
2019-03-17T12:05:19.617Z,1.50
2019-03-17T12:07:48.062Z,1.13
2019-03-17T12:10:21.521Z,1.30
2019-03-17T12:12:49.953Z,1.50
2019-03-17T12:15:22.484Z,1.00
2019-03-17T12:17:50.928Z,1.67
2019-03-17T12:20:19.625Z,0.93
2019-03-17T12:22:48.052Z,1.27
2019-03-17T12:25:18.117Z,1.33
2019-03-17T12:27:46.823Z,1.30
2019-03-17T12:30:30.131Z,0.90
2019-03-17T12:32:58.564Z,1.27
2019-03-17T12:35:27.161Z,1.13
2019-03-17T12:37:55.597Z,1.87
2019-03-17T12:40:25.752Z,1.33
2019-03-17T12:42:54.183Z,1.40
2019-03-17T12:45:22.765Z,1.10
2019-03-17T12:47:51.200Z,1.00
2019-03-17T12:50:22.219Z,1.40
2019-03-17T12:52:50.654Z,1.30
2019-03-17T12:55:19.113Z,1.17
2019-03-17T12:57:47.714Z,1.03
2019-03-17T13:00:18.586Z,1.60
2019-03-17T13:02:47.000Z,1.30
2019-03-17T13:05:15.446Z,1.57
2019-03-17T13:07:43.897Z,1.57
2019-03-17T13:10:20.318Z,2.37
2019-03-17T13:12:48.741Z,0.97
2019-03-17T13:15:17.350Z,0.80
2019-03-17T13:17:45.802Z,1.20
2019-03-17T13:20:15.670Z,0.73
2019-03-17T13:22:44.178Z,0.80
2019-03-17T13:25:14.096Z,1.07
2019-03-17T13:27:42.518Z,1.53
2019-03-17T13:30:13.874Z,1.10
2019-03-17T13:32:45.678Z,1.20
2019-03-17T13:35:14.504Z,0.80
2019-03-17T13:37:43.031Z,1.70
2019-03-17T13:40:13.425Z,1.13
2019-03-17T13:42:41.893Z,1.33
2019-03-17T13:45:13.233Z,1.23
2019-03-17T13:47:41.660Z,1.20
2019-03-17T13:50:18.704Z,1.73
2019-03-17T13:52:47.130Z,1.43
2019-03-17T13:55:15.542Z,1.30
2019-03-17T13:57:52.953Z,0.90
2019-03-17T14:00:21.535Z,0.83
2019-03-17T14:02:49.954Z,0.70
2019-03-17T14:05:18.386Z,0.70
2019-03-17T14:07:46.822Z,1.33
2019-03-17T14:10:16.987Z,0.90
2019-03-17T14:12:45.429Z,1.20
2019-03-17T14:15:14.993Z,0.87
2019-03-17T14:17:43.521Z,0.90
2019-03-17T14:20:14.845Z,1.23
2019-03-17T14:22:43.294Z,1.07
2019-03-17T14:25:27.210Z,0.97
2019-03-17T14:27:56.966Z,0.93
2019-03-17T14:30:25.397Z,1.20
2019-03-17T14:32:53.835Z,0.80
2019-03-17T14:35:22.272Z,0.97
2019-03-17T14:37:50.717Z,1.30
2019-03-17T14:40:19.438Z,1.00
2019-03-17T14:42:49.534Z,1.27
2019-03-17T14:45:18.406Z,0.70
2019-03-17T14:47:46.936Z,1.40
2019-03-17T14:50:22.364Z,1.63
2019-03-17T14:52:50.842Z,1.10
2019-03-17T14:55:19.449Z,1.27
2019-03-17T14:57:47.949Z,1.40
2019-03-17T15:00:18.309Z,0.77
2019-03-17T15:02:47.071Z,1.17
2019-03-17T15:05:15.556Z,1.47
2019-03-17T15:07:44.064Z,1.30
2019-03-17T15:10:15.845Z,1.07
2019-03-17T15:12:44.565Z,1.30
2019-03-17T15:15:17.259Z,0.70
2019-03-17T15:17:45.725Z,0.90
2019-03-17T15:20:19.690Z,0.73
2019-03-17T15:22:49.739Z,1.00
2019-03-17T15:25:18.174Z,1.57
2019-03-17T15:27:46.793Z,1.30
2019-03-17T15:30:29.397Z,1.47
2019-03-17T15:32:57.829Z,1.20
2019-03-17T15:35:26.491Z,1.43
2019-03-17T15:37:55.069Z,2.23
2019-03-17T15:40:23.501Z,1.30
2019-03-17T15:42:51.948Z,1.00
2019-03-17T15:45:21.699Z,0.97
2019-03-17T15:47:50.139Z,1.40
2019-03-17T15:50:20.678Z,1.80
2019-03-17T15:52:49.184Z,1.50
2019-03-17T15:55:18.281Z,1.17
2019-03-17T15:57:47.195Z,1.80
2019-03-17T16:00:25.505Z,1.20
2019-03-17T16:02:50.690Z,2.27
2019-03-17T16:05:19.774Z,1.20
2019-03-17T16:07:48.734Z,1.83
2019-03-17T16:10:27.032Z,1.40
2019-03-17T16:12:55.506Z,1.30
2019-03-17T16:15:23.941Z,2.20
2019-03-17T16:17:52.525Z,1.00
2019-03-17T16:20:22.138Z,2.10
2019-03-17T16:22:50.619Z,1.60
2019-03-17T16:25:31.181Z,1.60
2019-03-17T16:27:59.625Z,1.87
2019-03-17T16:30:32.112Z,2.20
2019-03-17T16:33:00.620Z,1.43
2019-03-17T16:35:29.066Z,1.33
2019-03-17T16:37:57.580Z,1.60
2019-03-17T16:40:30.608Z,1.43
2019-03-17T16:42:59.040Z,1.83
2019-03-17T16:45:28.962Z,1.60
2019-03-17T16:47:57.385Z,1.53
2019-03-17T16:50:25.817Z,1.60
2019-03-17T16:52:54.417Z,1.17
2019-03-17T16:55:22.857Z,2.00
2019-03-17T16:57:51.357Z,2.00
2019-03-17T17:00:24.018Z,2.07
2019-03-17T17:02:53.322Z,1.27
2019-03-17T17:05:23.865Z,2.00
2019-03-17T17:07:52.649Z,1.53
2019-03-17T17:10:30.779Z,1.63
2019-03-17T17:12:59.208Z,1.83
2019-03-17T17:15:34.897Z,1.93
2019-03-17T17:18:03.320Z,1.70
2019-03-17T17:20:34.165Z,1.60
2019-03-17T17:23:02.785Z,1.63
2019-03-17T17:25:31.227Z,1.60
2019-03-17T17:27:59.649Z,1.30
2019-03-17T17:30:28.073Z,1.30
2019-03-17T17:32:56.662Z,1.53
2019-03-17T17:35:25.110Z,1.50
2019-03-17T17:37:53.540Z,1.73
2019-03-17T17:40:23.319Z,1.50
2019-03-17T17:42:51.869Z,1.20
2019-03-17T17:45:22.445Z,1.90
2019-03-17T17:47:50.865Z,1.77
2019-03-17T17:50:21.145Z,1.73
2019-03-17T17:52:49.632Z,2.20
2019-03-17T17:55:18.148Z,1.00
2019-03-17T17:57:46.954Z,1.50
2019-03-17T18:00:22.593Z,1.33
2019-03-17T18:02:51.029Z,1.87
2019-03-17T18:05:19.453Z,1.40
2019-03-17T18:07:49.432Z,1.53
2019-03-17T18:10:18.586Z,1.40
2019-03-17T18:12:47.285Z,1.50
2019-03-17T18:15:28.713Z,1.60
2019-03-17T18:17:57.208Z,1.37
2019-03-17T18:20:25.645Z,1.80
2019-03-17T18:22:54.097Z,2.10
2019-03-17T18:25:22.915Z,1.10
2019-03-17T18:27:51.377Z,2.03
2019-03-17T18:30:24.375Z,2.03
2019-03-17T18:32:53.324Z,1.57
2019-03-17T18:35:22.605Z,1.97
2019-03-17T18:37:51.963Z,2.53
2019-03-17T18:40:21.787Z,1.53
2019-03-17T18:42:53.216Z,2.53
2019-03-17T18:45:27.456Z,1.90
2019-03-17T18:47:57.685Z,0.67
2019-03-17T18:50:27.000Z,1.50
2019-03-17T18:52:56.337Z,1.00
2019-03-17T18:55:25.089Z,1.80
2019-03-17T18:57:54.308Z,0.93
2019-03-17T19:00:24.842Z,2.23
2019-03-17T19:02:55.357Z,2.20
2019-03-17T19:05:26.508Z,1.30
2019-03-17T19:07:55.002Z,1.77
2019-03-17T19:10:23.581Z,1.17
2019-03-17T19:12:52.270Z,1.50
2019-03-17T19:15:22.892Z,1.57
2019-03-17T19:17:51.343Z,1.90
2019-03-17T19:20:21.669Z,1.90
2019-03-17T19:22:50.137Z,1.57
2019-03-17T19:25:25.849Z,1.80
2019-03-17T19:27:54.344Z,2.30
2019-03-17T19:30:23.835Z,1.33
2019-03-17T19:32:52.282Z,1.63
2019-03-17T19:35:21.045Z,1.00
2019-03-17T19:37:49.477Z,1.10
2019-03-17T19:40:21.041Z,1.53
2019-03-17T19:42:58.644Z,1.50
2019-03-17T19:45:19.782Z,1.60
2019-03-17T19:47:48.201Z,1.50
2019-03-17T19:50:20.652Z,1.50
2019-03-17T19:52:49.153Z,1.13
2019-03-17T19:55:17.570Z,1.80
2019-03-17T19:57:45.998Z,1.90
2019-03-17T20:00:16.297Z,2.80
2019-03-17T20:02:47.490Z,0.93
2019-03-17T20:05:14.914Z,0.97
2019-03-17T20:07:43.333Z,1.77
2019-03-17T20:10:14.714Z,1.60
2019-03-17T20:12:43.151Z,1.67
2019-03-17T20:15:11.577Z,1.70
2019-03-17T20:17:40.010Z,0.77
2019-03-17T20:20:13.822Z,1.23
2019-03-17T20:22:42.247Z,1.83
2019-03-17T20:25:10.687Z,2.00
2019-03-17T20:27:39.135Z,1.73
2019-03-17T20:30:12.873Z,1.60
2019-03-17T20:32:42.996Z,1.43
2019-03-17T20:35:12.715Z,2.10
2019-03-17T20:37:41.139Z,1.83
2019-03-17T20:40:17.765Z,1.80
2019-03-17T20:42:46.398Z,1.10
2019-03-17T20:45:20.181Z,2.30
2019-03-17T20:47:47.845Z,1.80
2019-03-17T20:50:18.022Z,1.73
2019-03-17T20:52:46.474Z,2.10
2019-03-17T20:55:15.054Z,1.60
2019-03-17T20:57:45.494Z,2.20
2019-03-17T21:00:19.302Z,1.87
2019-03-17T21:02:47.749Z,1.50
2019-03-17T21:05:16.194Z,1.80
2019-03-17T21:07:44.624Z,1.43
2019-03-17T21:10:17.511Z,2.50
2019-03-17T21:12:47.467Z,2.10
2019-03-17T21:15:20.260Z,2.80
2019-03-17T21:17:49.957Z,2.40
2019-03-17T21:20:20.616Z,2.30
2019-03-17T21:22:49.176Z,1.13
2019-03-17T21:25:17.609Z,2.07
2019-03-17T21:27:46.075Z,1.50
2019-03-17T21:30:23.056Z,1.63
2019-03-17T21:32:51.488Z,1.90
2019-03-17T21:35:19.926Z,1.20
2019-03-17T21:37:48.369Z,1.67
2019-03-17T21:40:16.787Z,2.33
2019-03-17T21:42:45.252Z,1.97
2019-03-17T21:45:14.402Z,1.93
2019-03-17T21:47:42.860Z,2.00
2019-03-17T21:50:14.080Z,1.83
2019-03-17T21:52:42.513Z,1.57
2019-03-17T21:55:11.753Z,2.43
2019-03-17T21:57:40.293Z,1.63
2019-03-17T22:00:11.793Z,1.97
2019-03-17T22:02:40.233Z,2.17
2019-03-17T22:05:11.577Z,1.60
2019-03-17T22:07:49.646Z,1.33
2019-03-17T22:10:13.382Z,1.47
2019-03-17T22:12:41.805Z,1.40
2019-03-17T22:15:18.185Z,1.80
2019-03-17T22:17:46.711Z,1.30
2019-03-17T22:20:16.456Z,1.50
2019-03-17T22:22:44.913Z,1.87
2019-03-17T22:25:14.674Z,1.17
2019-03-17T22:27:43.109Z,1.63
2019-03-17T22:30:18.839Z,1.00
2019-03-17T22:32:47.274Z,1.83
2019-03-17T22:35:15.697Z,1.50
2019-03-17T22:37:44.135Z,1.70
2019-03-17T22:40:18.499Z,2.10
2019-03-17T22:42:46.934Z,1.40
2019-03-17T22:45:17.086Z,1.20
2019-03-17T22:47:45.535Z,1.50
2019-03-17T22:50:19.486Z,2.50
2019-03-17T22:52:47.904Z,1.70
2019-03-17T22:55:17.875Z,2.20
2019-03-17T22:57:46.308Z,1.70
2019-03-17T23:00:35.706Z,1.57
2019-03-17T23:03:05.562Z,1.70
2019-03-17T23:05:33.984Z,1.90
2019-03-17T23:08:02.413Z,2.07
2019-03-17T23:10:30.972Z,1.57
2019-03-17T23:12:59.997Z,1.93
2019-03-17T23:15:28.423Z,1.97
2019-03-17T23:17:56.875Z,1.90
2019-03-17T23:20:25.299Z,1.80
2019-03-17T23:22:53.740Z,2.20
2019-03-17T23:25:22.270Z,1.93
2019-03-17T23:27:50.749Z,1.30
2019-03-17T23:30:20.321Z,2.40
2019-03-17T23:32:49.373Z,3.50
2019-03-17T23:35:18.532Z,1.53
2019-03-17T23:37:46.943Z,2.00
2019-03-17T23:40:16.730Z,1.50
2019-03-17T23:42:45.151Z,2.10
2019-03-17T23:45:14.185Z,2.03
2019-03-17T23:47:42.302Z,1.30
2019-03-17T23:50:13.957Z,1.60
2019-03-17T23:52:42.927Z,2.07
2019-03-17T23:55:15.689Z,1.57
2019-03-17T23:57:44.118Z,2.17
